Time;durP1;ratioP1;P1;durP2;ratioP2;P2;SDS_P1;SDS_P2;PMS_P1;PMS_P2;Temp;Humidity;BMP_temperature;BMP_pressure;BME280_temperature;BME280_humidity;BME280_pressure;Samples;Min_cycle;Max_cycle;Signal;HPM_P1;HPM_P2
2022/03/19 00:01:04;;;;;;;1.10;0.70;;;19.00;58.70;;;;;;5014106;28;20503;-62
2022/03/19 00:03:31;;;;;;;2.45;0.50;;;19.00;58.70;;;;;;5013823;28;20025;-62
2022/03/19 00:05:56;;;;;;;1.10;0.50;;;19.00;58.70;;;;;;5013893;28;20034;-62
2022/03/19 00:08:22;;;;;;;0.98;0.65;;;19.00;58.80;;;;;;5013452;28;20038;-62
2022/03/19 00:10:48;;;;;;;0.82;0.60;;;19.00;58.80;;;;;;5012708;28;20097;-62
2022/03/19 00:13:14;;;;;;;0.57;0.40;;;19.10;58.90;;;;;;5013633;28;20590;-62
2022/03/19 00:15:40;;;;;;;1.45;0.50;;;19.00;58.80;;;;;;5012588;28;20451;-62
2022/03/19 00:18:06;;;;;;;2.55;1.08;;;19.00;58.80;;;;;;5012467;28;20026;-62
2022/03/19 00:20:32;;;;;;;0.90;0.52;;;19.00;58.90;;;;;;5012369;28;20022;-62
2022/03/19 00:22:58;;;;;;;2.08;0.60;;;19.00;58.90;;;;;;5012124;28;20049;-62
2022/03/19 00:25:23;;;;;;;1.35;0.63;;;19.00;58.90;;;;;;5013466;28;20061;-62
2022/03/19 00:27:49;;;;;;;2.05;0.60;;;19.00;58.90;;;;;;5013656;28;20026;-62
2022/03/19 00:30:15;;;;;;;1.23;0.52;;;19.00;58.90;;;;;;5013292;28;20025;-61
2022/03/19 00:32:40;;;;;;;1.25;0.65;;;19.10;59.00;;;;;;5012037;28;20373;-62
2022/03/19 00:35:07;;;;;;;1.75;0.57;;;19.00;58.90;;;;;;5026688;28;20025;-62
2022/03/19 00:37:46;;;;;;;2.20;0.70;;;19.10;59.00;;;;;;5032706;28;20021;-62
2022/03/19 00:40:12;;;;;;;2.00;0.63;;;19.00;59.00;;;;;;5033190;28;20018;-62
2022/03/19 00:42:38;;;;;;;1.08;0.40;;;19.00;59.00;;;;;;5031744;28;20295;-62
2022/03/19 00:45:04;;;;;;;1.30;0.50;;;19.00;59.10;;;;;;5032952;28;20029;-62
2022/03/19 00:47:30;;;;;;;1.05;0.50;;;19.00;59.10;;;;;;5032844;28;20462;-62
2022/03/19 00:49:55;;;;;;;1.88;0.47;;;19.00;59.10;;;;;;5032724;28;20443;-62
2022/03/19 00:52:21;;;;;;;0.73;0.40;;;19.00;59.10;;;;;;5027930;28;20034;-62
2022/03/19 00:54:46;;;;;;;2.90;0.50;;;19.00;59.20;;;;;;5012907;28;20026;-62
2022/03/19 00:57:12;;;;;;;2.58;0.77;;;19.00;59.10;;;;;;5013130;28;20030;-62
2022/03/19 00:59:38;;;;;;;1.40;0.60;;;19.00;59.20;;;;;;5012880;28;20014;-62
2022/03/19 01:02:04;;;;;;;2.75;0.73;;;19.00;59.20;;;;;;5013020;28;20022;-62
2022/03/19 01:04:29;;;;;;;1.02;0.63;;;19.00;59.20;;;;;;5011494;28;20740;-62
2022/03/19 01:06:55;;;;;;;0.80;0.50;;;19.00;59.20;;;;;;5012887;28;20030;-62
2022/03/19 01:09:20;;;;;;;0.98;0.60;;;19.00;59.20;;;;;;5012562;28;20443;-62
2022/03/19 01:11:46;;;;;;;1.08;0.50;;;19.00;59.30;;;;;;5012890;28;20036;-62
2022/03/19 01:14:12;;;;;;;0.85;0.50;;;19.00;59.40;;;;;;5012832;28;20101;-62
2022/03/19 01:40:13;;;;;;;1.73;0.88;;;18.80;59.60;;;;;;5011431;28;20033;-62
2022/03/19 01:42:43;;;;;;;0.82;0.45;;;18.80;59.70;;;;;;5030506;28;20052;-62
2022/03/19 01:45:14;;;;;;;0.73;0.50;;;18.80;59.70;;;;;;5032172;28;20545;-62
2022/03/19 01:47:39;;;;;;;1.00;0.52;;;18.80;59.60;;;;;;5032010;28;20033;-62
2022/03/19 01:50:07;;;;;;;0.52;0.50;;;18.80;59.60;;;;;;5031861;28;20022;-62
2022/03/19 01:52:33;;;;;;;2.20;0.50;;;18.80;59.60;;;;;;5031965;28;20111;-62
2022/03/19 01:54:59;;;;;;;0.20;0.20;;;18.80;59.60;;;;;;5031927;28;20067;-62
2022/03/19 01:57:25;;;;;;;2.28;0.40;;;18.90;59.70;;;;;;5031982;28;20030;-62
2022/03/19 01:59:51;;;;;;;1.85;0.50;;;18.80;59.60;;;;;;5032258;28;20140;-62
2022/03/19 02:02:17;;;;;;;2.55;0.82;;;18.80;59.70;;;;;;5031836;28;20030;-62
2022/03/19 02:04:44;;;;;;;2.55;0.75;;;18.80;59.60;;;;;;5031978;28;20083;-62
2022/03/19 02:07:11;;;;;;;1.83;0.47;;;18.80;59.60;;;;;;5030903;28;20036;-62
2022/03/19 02:09:37;;;;;;;1.27;0.40;;;18.80;59.60;;;;;;5030646;28;20103;-62
2022/03/19 02:12:03;;;;;;;1.25;0.50;;;18.80;59.70;;;;;;5032079;28;20059;-62
2022/03/19 02:14:29;;;;;;;0.52;0.50;;;18.80;59.60;;;;;;5030026;28;20029;-62
2022/03/19 02:16:54;;;;;;;1.40;0.70;;;18.80;59.70;;;;;;5011915;28;20559;-62
2022/03/19 02:19:20;;;;;;;1.35;0.60;;;18.80;59.70;;;;;;5012215;28;20025;-62
2022/03/19 02:21:47;;;;;;;1.42;0.50;;;18.80;59.70;;;;;;5014385;28;20041;-62
2022/03/19 02:26:57;;;;;;;0.90;0.50;;;18.80;59.70;;;;;;5015980;28;20451;-62
2022/03/19 02:29:23;;;;;;;0.80;0.40;;;18.80;59.70;;;;;;5014834;28;20484;-62
2022/03/19 02:31:50;;;;;;;0.93;0.60;;;18.80;59.80;;;;;;5014262;28;20056;-62
2022/03/19 02:34:16;;;;;;;1.58;0.60;;;18.80;59.80;;;;;;5022068;28;20036;-62
2022/03/19 02:36:42;;;;;;;0.90;0.47;;;18.80;59.80;;;;;;5035406;28;20108;-62
2022/03/19 02:39:17;;;;;;;1.73;0.65;;;18.80;59.80;;;;;;5034333;28;20049;-62
2022/03/19 02:41:52;;;;;;;0.68;0.40;;;18.80;59.80;;;;;;5035061;28;20570;-62
2022/03/19 02:44:18;;;;;;;0.60;0.43;;;18.80;59.80;;;;;;5035292;28;20071;-62
2022/03/19 02:46:55;;;;;;;0.73;0.50;;;18.80;59.80;;;;;;5033825;28;20025;-62
2022/03/19 02:49:21;;;;;;;0.95;0.50;;;18.80;59.80;;;;;;5028499;28;20014;-62
2022/03/19 02:51:48;;;;;;;0.85;0.40;;;18.80;59.90;;;;;;5015286;28;20037;-62
2022/03/19 02:54:15;;;;;;;1.08;0.60;;;18.80;59.90;;;;;;5014245;28;20022;-62
2022/03/19 02:56:41;;;;;;;1.15;0.55;;;18.80;59.90;;;;;;5015082;28;20022;-62
2022/03/19 02:59:17;;;;;;;0.90;0.70;;;18.80;60.00;;;;;;5015326;28;20037;-62
2022/03/19 03:01:50;;;;;;;0.57;0.55;;;18.80;59.90;;;;;;5014820;28;20026;-62
2022/03/19 03:04:15;;;;;;;;;;;18.80;60.00;;;;;;5014398;28;20029;-62
2022/03/19 03:06:43;;;;;;;0.52;0.43;;;18.70;60.00;;;;;;5014964;28;19909;-62
2022/03/19 03:09:09;;;;;;;0.90;0.40;;;18.70;60.20;;;;;;5015214;28;20025;-62
2022/03/19 03:11:36;;;;;;;0.90;0.60;;;18.70;60.10;;;;;;5015084;28;20429;-62
2022/03/19 03:14:01;;;;;;;0.60;0.60;;;18.70;60.10;;;;;;5014861;28;20025;-62
2022/03/19 03:16:27;;;;;;;0.93;0.50;;;18.70;60.10;;;;;;5013613;28;20022;-62
2022/03/19 03:18:57;;;;;;;1.40;0.70;;;18.70;60.10;;;;;;5013771;28;20416;-62
2022/03/19 03:21:24;;;;;;;0.73;0.50;;;18.70;60.00;;;;;;5014808;28;20014;-62
2022/03/19 03:23:49;;;;;;;0.57;0.43;;;18.70;60.10;;;;;;5014866;28;20080;-62
2022/03/19 03:26:15;;;;;;;0.90;0.40;;;18.70;60.10;;;;;;5014784;28;20396;-62
2022/03/19 03:28:41;;;;;;;1.45;0.52;;;18.70;60.10;;;;;;5014797;28;20033;-62
2022/03/19 03:31:07;;;;;;;0.68;0.38;;;18.70;60.10;;;;;;5014238;28;20026;-62
2022/03/19 03:33:33;;;;;;;0.40;0.40;;;18.70;60.10;;;;;;5014748;28;20037;-62
2022/03/19 03:35:58;;;;;;;0.90;0.50;;;18.70;60.10;;;;;;5034439;28;20101;-62
2022/03/19 03:38:24;;;;;;;0.75;0.60;;;18.70;60.10;;;;;;5034288;28;20040;-62
2022/03/19 03:40:51;;;;;;;0.88;0.50;;;18.70;60.10;;;;;;5033972;28;20531;-62
2022/03/19 03:43:17;;;;;;;0.52;0.30;;;18.70;60.10;;;;;;5034132;28;20036;-62
2022/03/19 03:45:42;;;;;;;1.13;0.50;;;18.70;60.10;;;;;;5034017;28;20057;-62
2022/03/19 03:48:09;;;;;;;0.47;0.30;;;18.70;60.20;;;;;;5032841;28;20441;-62
2022/03/19 03:50:35;;;;;;;0.88;0.50;;;18.70;60.20;;;;;;5017311;28;20037;-62
2022/03/19 03:53:03;;;;;;;0.68;0.43;;;18.70;60.20;;;;;;5013022;28;20032;-62
2022/03/19 03:55:28;;;;;;;0.80;0.40;;;18.70;60.20;;;;;;5013981;28;20026;-62
2022/03/19 03:57:54;;;;;;;1.00;0.65;;;18.70;60.20;;;;;;5012954;28;20149;-62
2022/03/19 04:00:20;;;;;;;0.55;0.55;;;18.70;60.30;;;;;;5012794;28;20361;-62
2022/03/19 04:02:45;;;;;;;0.68;0.50;;;18.70;60.20;;;;;;5013885;28;20406;-62
2022/03/19 04:05:11;;;;;;;1.40;0.50;;;18.70;60.30;;;;;;5014061;28;20040;-62
2022/03/19 04:07:36;;;;;;;1.75;0.50;;;18.70;60.30;;;;;;5013880;28;20503;-62
2022/03/19 04:10:03;;;;;;;0.95;0.50;;;18.70;60.30;;;;;;5014061;28;20021;-62
2022/03/19 04:12:28;;;;;;;0.75;0.50;;;18.70;60.40;;;;;;5012769;28;20539;-62
2022/03/19 04:14:54;;;;;;;1.92;0.70;;;18.70;60.30;;;;;;5013464;28;20141;-62
2022/03/19 04:17:19;;;;;;;0.40;0.40;;;18.70;60.30;;;;;;5013807;28;20026;-62
2022/03/19 04:19:45;;;;;;;1.25;0.50;;;18.70;60.30;;;;;;5012382;28;20028;-62
2022/03/19 04:22:11;;;;;;;1.10;0.70;;;18.70;60.40;;;;;;5013947;28;20026;-62
2022/03/19 04:24:37;;;;;;;1.00;0.57;;;18.70;60.40;;;;;;5012437;28;20080;-62
2022/03/19 04:27:03;;;;;;;1.15;0.60;;;18.70;60.40;;;;;;5013500;28;20441;-62
2022/03/19 04:29:29;;;;;;;1.42;0.60;;;18.60;60.40;;;;;;5013372;28;20034;-62
2022/03/19 04:31:54;;;;;;;0.38;0.30;;;18.70;60.50;;;;;;5013442;28;20041;-62
2022/03/19 04:34:20;;;;;;;2.17;0.43;;;18.70;60.50;;;;;;5019075;28;20495;-61
2022/03/19 04:36:46;;;;;;;0.40;0.40;;;18.60;60.40;;;;;;5033097;28;20028;-62
2022/03/19 04:39:12;;;;;;;0.75;0.55;;;18.60;60.40;;;;;;5033108;28;20028;-61
2022/03/19 04:41:37;;;;;;;0.35;0.35;;;18.60;60.40;;;;;;5032929;28;20103;-62
2022/03/19 04:44:07;;;;;;;1.35;0.60;;;18.60;60.50;;;;;;5032343;28;20022;-62
2022/03/19 04:46:33;;;;;;;0.82;0.40;;;18.60;60.50;;;;;;5033047;28;20566;-62
2022/03/19 04:48:59;;;;;;;0.68;0.40;;;18.60;60.50;;;;;;5028054;28;20041;-62
2022/03/19 04:51:32;;;;;;;1.48;0.57;;;18.60;60.50;;;;;;5013249;28;20080;-62
2022/03/19 04:53:58;;;;;;;0.85;0.40;;;18.60;60.50;;;;;;5011876;28;20022;-62
2022/03/19 04:56:25;;;;;;;0.85;0.60;;;18.60;60.60;;;;;;5012807;28;20026;-62
2022/03/19 04:58:51;;;;;;;1.70;0.50;;;18.60;60.50;;;;;;5012898;28;20046;-62
2022/03/19 05:01:17;;;;;;;0.43;0.40;;;18.60;60.60;;;;;;5013035;28;20522;-62
2022/03/19 05:03:43;;;;;;;0.80;0.60;;;18.60;60.60;;;;;;5011550;28;20033;-62
2022/03/19 05:06:08;;;;;;;0.40;0.32;;;18.60;60.60;;;;;;5012958;28;20113;-62
2022/03/19 05:08:34;;;;;;;0.38;0.38;;;18.60;60.60;;;;;;5013141;28;20060;-62
2022/03/19 05:13:55;;;;;;;0.77;0.47;;;18.60;60.70;;;;;;5003680;28;20527;-62
2022/03/19 05:16:20;;;;;;;0.55;0.50;;;18.50;60.60;;;;;;5012762;28;20025;-62
2022/03/19 05:18:46;;;;;;;1.30;0.40;;;18.60;60.70;;;;;;5012587;28;20495;-62
2022/03/19 05:21:13;;;;;;;0.65;0.50;;;18.60;60.70;;;;;;5012619;28;20515;-62
2022/03/19 05:23:41;;;;;;;0.40;0.40;;;18.60;60.70;;;;;;5012747;28;20026;-62
2022/03/19 05:26:06;;;;;;;0.93;0.50;;;18.60;60.70;;;;;;5011264;28;20077;-62
2022/03/19 05:28:32;;;;;;;1.02;0.50;;;18.50;60.70;;;;;;5012762;28;20477;-62
2022/03/19 05:30:57;;;;;;;2.25;0.60;;;18.50;60.70;;;;;;5012545;28;20065;-62
2022/03/19 05:34:29;;;;;;;0.60;0.40;;;18.50;60.70;;;;;;5012504;28;20404;-62
2022/03/19 05:36:09;;;;;;;1.52;0.55;;;18.50;60.70;;;;;;5031013;28;20040;-62
2022/03/19 05:38:35;;;;;;;1.02;0.40;;;18.50;60.80;;;;;;5031269;28;20406;-62
2022/03/19 05:41:01;;;;;;;0.68;0.50;;;18.50;60.70;;;;;;5031852;28;20686;-62
2022/03/19 05:43:26;;;;;;;0.55;0.40;;;18.50;60.80;;;;;;5032383;28;20100;-62
2022/03/19 05:45:52;;;;;;;0.65;0.40;;;18.50;60.80;;;;;;5032044;28;20033;-62
2022/03/19 05:48:17;;;;;;;0.70;0.45;;;18.50;60.80;;;;;;5032274;28;20095;-62
2022/03/19 05:50:43;;;;;;;1.02;0.40;;;18.50;60.80;;;;;;5014442;28;20065;-62
2022/03/19 05:53:08;;;;;;;2.17;0.38;;;18.50;60.80;;;;;;5011345;28;20503;-62
2022/03/19 05:55:34;;;;;;;0.77;0.38;;;18.50;60.80;;;;;;5032525;28;20056;-62
2022/03/19 05:58:00;;;;;;;0.52;0.45;;;18.50;60.80;;;;;;5033949;28;20100;-62
2022/03/19 06:00:25;;;;;;;0.60;0.40;;;18.50;60.90;;;;;;5034363;28;20026;-62
2022/03/19 06:02:51;;;;;;;0.40;0.40;;;18.50;60.90;;;;;;5035147;28;20424;-62
2022/03/19 06:05:17;;;;;;;0.30;0.30;;;18.50;60.90;;;;;;5035366;28;20030;-62
2022/03/19 06:07:42;;;;;;;1.00;0.50;;;18.50;60.90;;;;;;5035272;28;20072;-62
2022/03/19 06:10:09;;;;;;;0.70;0.47;;;18.50;60.90;;;;;;5034745;28;20029;-62
2022/03/19 06:12:34;;;;;;;1.48;0.50;;;18.50;61.00;;;;;;5035343;28;20041;-62
2022/03/19 06:15:00;;;;;;;0.43;0.25;;;18.50;61.00;;;;;;5034404;28;20427;-62
2022/03/19 06:17:26;;;;;;;1.73;0.30;;;18.50;61.00;;;;;;5035968;28;20361;-62
2022/03/19 06:19:52;;;;;;;0.40;0.40;;;18.50;61.00;;;;;;5035776;28;20025;-62
2022/03/19 06:22:17;;;;;;;1.00;0.57;;;18.50;61.00;;;;;;5034753;28;20049;-62
2022/03/19 06:24:43;;;;;;;0.47;0.38;;;18.50;61.00;;;;;;5035531;28;20025;-62
2022/03/19 06:27:08;;;;;;;0.80;0.40;;;18.40;61.00;;;;;;5035586;28;20078;-62
2022/03/19 06:29:34;;;;;;;0.95;0.40;;;18.40;61.00;;;;;;5035445;28;20026;-62
2022/03/19 06:32:00;;;;;;;0.68;0.50;;;18.40;61.00;;;;;;5035562;28;20026;-62
2022/03/19 06:34:25;;;;;;;0.30;0.30;;;18.40;61.00;;;;;;5035165;28;20029;-62
2022/03/19 06:39:35;;;;;;;2.95;0.50;;;18.40;61.00;;;;;;5035452;28;20041;-62
2022/03/19 06:42:01;;;;;;;0.90;0.57;;;18.40;61.10;;;;;;5035137;28;20033;-62
2022/03/19 06:44:27;;;;;;;0.55;0.40;;;18.40;61.20;;;;;;5035459;28;20026;-62
2022/03/19 06:46:52;;;;;;;0.77;0.40;;;18.40;61.20;;;;;;5033996;28;20026;-62
2022/03/19 06:49:18;;;;;;;1.60;0.30;;;18.40;61.20;;;;;;5028964;28;20057;-62
2022/03/19 06:51:44;;;;;;;0.65;0.40;;;18.40;61.20;;;;;;5015341;28;20053;-62
2022/03/19 06:54:09;;;;;;;1.42;0.40;;;18.50;61.30;;;;;;5015030;28;20496;-62
2022/03/19 06:56:35;;;;;;;1.13;0.38;;;18.40;61.20;;;;;;5015496;28;20093;-62
2022/03/19 06:59:01;;;;;;;1.23;0.40;;;18.40;61.20;;;;;;5015207;28;20034;-62
2022/03/19 07:01:26;;;;;;;1.50;0.30;;;18.40;61.20;;;;;;5015139;28;20542;-62
2022/03/19 07:03:52;;;;;;;0.73;0.47;;;18.40;61.20;;;;;;5015105;28;20030;-62
2022/03/19 07:06:18;;;;;;;0.38;0.38;;;18.50;61.30;;;;;;5014652;28;20056;-62
2022/03/19 07:08:44;;;;;;;0.50;0.50;;;18.40;61.20;;;;;;5013839;28;20669;-62
2022/03/19 07:11:09;;;;;;;0.63;0.40;;;18.40;61.20;;;;;;5013975;28;20900;-62
2022/03/19 07:13:35;;;;;;;0.85;0.47;;;18.40;61.20;;;;;;5014801;28;20033;-62
2022/03/19 07:16:02;;;;;;;0.68;0.43;;;18.40;61.30;;;;;;5013645;28;20014;-62
2022/03/19 07:18:27;;;;;;;0.43;0.40;;;18.40;61.20;;;;;;5013925;28;20022;-62
2022/03/19 07:20:53;;;;;;;0.65;0.47;;;18.40;61.20;;;;;;5020944;28;20029;-62
2022/03/19 07:23:19;;;;;;;0.45;0.30;;;18.40;61.30;;;;;;5033279;28;20392;-61
2022/03/19 07:25:44;;;;;;;0.43;0.30;;;18.40;62.30;;;;;;5033599;28;20507;-61
2022/03/19 07:28:13;;;;;;;0.80;0.50;;;18.40;61.20;;;;;;5032223;28;20395;-62
2022/03/19 07:30:38;;;;;;;0.40;0.40;;;18.40;61.30;;;;;;5032379;28;20053;-62
2022/03/19 07:33:04;;;;;;;0.60;0.30;;;18.40;61.20;;;;;;5033577;28;20570;-62
2022/03/19 07:35:30;;;;;;;0.60;0.50;;;18.40;61.30;;;;;;5033276;28;20022;-62
2022/03/19 07:37:57;;;;;;;13.93;1.15;;;18.40;61.30;;;;;;5034011;28;20071;-62
2022/03/19 07:43:08;;;;;;;1.25;1.13;;;18.40;61.30;;;;;;5031937;28;20072;-62
2022/03/19 07:45:35;;;;;;;2.63;1.95;;;18.30;60.70;;;;;;5034165;28;20045;-62
2022/03/19 07:48:00;;;;;;;3.22;2.40;;;18.30;60.00;;;;;;5034020;28;20021;-62
2022/03/19 07:50:26;;;;;;;5.28;2.58;;;18.20;59.80;;;;;;5018252;28;20431;-62
2022/03/19 07:52:52;;;;;;;3.13;2.60;;;18.10;59.50;;;;;;5013279;28;20026;-62
2022/03/19 07:55:18;;;;;;;4.13;2.95;;;18.00;59.40;;;;;;5013979;28;20416;-61
2022/03/19 07:57:43;;;;;;;3.70;2.92;;;18.00;59.20;;;;;;5013854;28;20028;-62
2022/03/19 08:00:09;;;;;;;5.35;3.13;;;17.90;59.00;;;;;;5013254;28;20030;-62
2022/03/19 08:02:35;;;;;;;4.82;3.50;;;17.90;58.90;;;;;;5032357;28;20018;-62
2022/03/19 08:05:03;;;;;;;4.63;2.95;;;17.90;58.90;;;;;;5033732;28;20052;-62
2022/03/19 08:07:29;;;;;;;3.90;3.38;;;17.90;58.70;;;;;;5034050;28;20032;-62
2022/03/19 08:09:55;;;;;;;4.80;3.45;;;17.80;58.40;;;;;;5034214;28;20037;-62
2022/03/19 08:12:25;;;;;;;5.95;3.80;;;17.80;58.10;;;;;;5034083;28;20033;-62
2022/03/19 08:14:51;;;;;;;4.57;3.45;;;17.80;58.10;;;;;;5032651;28;20102;-62
2022/03/19 08:17:18;;;;;;;5.22;4.03;;;17.70;57.90;;;;;;5032198;28;20427;-62
2022/03/19 08:19:44;;;;;;;5.45;4.13;;;17.70;57.80;;;;;;5032019;28;20040;-62
2022/03/19 08:22:09;;;;;;;6.32;4.75;;;17.70;57.80;;;;;;5032654;28;20018;-62
2022/03/19 08:24:36;;;;;;;6.43;4.57;;;17.60;57.50;;;;;;5032687;28;20108;-62
2022/03/19 08:27:01;;;;;;;5.68;4.32;;;17.60;57.40;;;;;;5032366;28;20022;-62
2022/03/19 08:29:27;;;;;;;6.43;4.80;;;17.60;57.40;;;;;;5033821;28;20040;-62
2022/03/19 08:31:57;;;;;;;8.15;5.00;;;17.60;57.20;;;;;;5033858;28;20438;-62
2022/03/19 08:34:25;;;;;;;8.00;4.80;;;17.60;57.10;;;;;;5032155;28;20033;-62
2022/03/19 08:36:52;;;;;;;8.20;5.07;;;17.50;57.00;;;;;;5032618;28;20104;-62
2022/03/19 08:42:02;;;;;;;11.43;4.72;;;17.60;57.60;;;;;;5033360;28;20096;-62
2022/03/19 08:44:27;;;;;;;9.13;4.55;;;17.70;58.00;;;;;;5032737;28;20500;-62
2022/03/19 08:46:53;;;;;;;10.30;3.92;;;17.70;58.10;;;;;;5032924;28;20388;-62
2022/03/19 08:49:19;;;;;;;14.95;4.10;;;17.80;58.20;;;;;;5033198;28;20037;-62
2022/03/19 08:51:45;;;;;;;11.05;3.65;;;17.90;58.20;;;;;;5033461;28;20557;-62
2022/03/19 08:54:16;;;;;;;13.60;3.72;;;17.90;58.20;;;;;;5033010;28;20033;-62
2022/03/19 08:56:43;;;;;;;4.63;2.85;;;18.00;58.10;;;;;;5033256;28;20017;-62
2022/03/19 08:59:09;;;;;;;11.68;4.05;;;18.00;58.20;;;;;;5033515;28;20353;-62
2022/03/19 09:01:35;;;;;;;7.82;3.20;;;18.00;58.10;;;;;;5032025;28;20486;-62
2022/03/19 09:04:01;;;;;;;5.22;2.63;;;18.10;58.10;;;;;;5033108;28;20571;-62
2022/03/19 09:06:27;;;;;;;8.70;3.53;;;18.10;58.10;;;;;;5032250;28;20128;-62
2022/03/19 09:08:52;;;;;;;7.63;2.75;;;18.10;58.10;;;;;;5032890;28;20036;-62
2022/03/19 09:11:18;;;;;;;5.38;2.67;;;18.20;58.10;;;;;;5033254;28;20078;-62
2022/03/19 09:13:45;;;;;;;8.13;3.00;;;18.20;58.10;;;;;;5033099;28;20026;-62
2022/03/19 09:16:11;;;;;;;4.65;2.78;;;18.20;58.10;;;;;;5032813;28;20064;-62
2022/03/19 09:18:36;;;;;;;8.50;2.90;;;18.20;58.10;;;;;;5032591;28;20100;-62
2022/03/19 09:21:02;;;;;;;8.40;3.40;;;18.20;58.00;;;;;;5033008;28;20018;-62
2022/03/19 09:23:28;;;;;;;6.72;3.10;;;18.20;58.00;;;;;;5033048;28;20029;-62
2022/03/19 09:25:54;;;;;;;7.95;2.70;;;18.20;58.00;;;;;;5033090;28;20044;-62
2022/03/19 09:28:20;;;;;;;6.80;2.97;;;18.30;58.10;;;;;;5032816;28;20025;-62
2022/03/19 09:30:46;;;;;;;6.50;2.97;;;18.30;58.10;;;;;;5031372;28;20032;-62
2022/03/19 09:33:11;;;;;;;6.40;2.40;;;18.30;58.00;;;;;;5031349;28;20069;-62
2022/03/19 09:35:37;;;;;;;7.18;2.65;;;18.30;58.10;;;;;;5032766;28;20415;-62
2022/03/19 09:38:02;;;;;;;4.57;2.60;;;18.30;58.00;;;;;;5032989;28;20491;-62
2022/03/19 09:40:28;;;;;;;5.80;2.50;;;18.30;58.00;;;;;;5031303;28;20129;-62
2022/03/19 09:42:56;;;;;;;7.90;2.95;;;18.30;58.00;;;;;;5032799;28;20060;-62
2022/03/19 09:45:22;;;;;;;7.63;2.72;;;18.40;58.00;;;;;;5032737;28;20045;-62
2022/03/19 09:47:48;;;;;;;5.53;2.50;;;18.40;58.00;;;;;;5032473;28;20068;-62
2022/03/19 09:50:14;;;;;;;5.95;2.45;;;18.40;58.00;;;;;;5015033;28;20029;-62
2022/03/19 09:52:41;;;;;;;5.57;3.10;;;18.40;58.00;;;;;;5032493;28;20369;-62
2022/03/19 09:55:08;;;;;;;4.05;2.20;;;18.40;58.00;;;;;;5028359;28;20026;-62
2022/03/19 09:57:34;;;;;;;6.60;2.70;;;18.40;58.00;;;;;;5012779;28;20033;-62
2022/03/19 10:00:00;;;;;;;2.83;2.33;;;18.40;58.00;;;;;;5012933;28;20026;-62
2022/03/19 10:02:25;;;;;;;4.78;2.33;;;18.50;58.00;;;;;;5012765;28;20022;-62
2022/03/19 10:04:56;;;;;;;4.20;2.45;;;18.40;57.90;;;;;;5011560;28;20022;-62
2022/03/19 10:10:11;;;;;;;3.88;2.67;;;18.60;58.00;;;;;;5012816;28;20396;-62
2022/03/19 10:12:37;;;;;;;5.93;3.17;;;18.50;58.00;;;;;;5011633;28;20025;-62
2022/03/19 10:15:09;;;;;;;4.25;3.00;;;18.50;58.00;;;;;;5012984;28;20109;-62
2022/03/19 10:17:35;;;;;;;5.45;3.42;;;18.50;58.00;;;;;;5012535;28;20369;-62
2022/03/19 10:20:04;;;;;;;5.60;3.20;;;18.50;57.90;;;;;;5012694;28;20014;-62
2022/03/19 10:22:29;;;;;;;5.35;3.40;;;18.50;57.90;;;;;;5012620;28;20029;-62
2022/03/19 10:25:03;;;;;;;5.05;3.28;;;18.50;57.90;;;;;;5011558;28;20021;-62
2022/03/19 10:27:33;;;;;;;4.85;3.22;;;18.50;57.80;;;;;;5010267;28;20026;-61
2022/03/19 10:30:07;;;;;;;3.67;2.80;;;18.60;57.80;;;;;;5027792;28;20025;-61
2022/03/19 10:32:34;;;;;;;3.67;2.72;;;18.60;57.80;;;;;;5030522;28;20042;-62
2022/03/19 10:35:01;;;;;;;5.50;3.20;;;18.50;57.80;;;;;;5021675;28;20346;-61
2022/03/19 10:37:35;;;;;;;5.13;3.10;;;18.60;57.80;;;;;;5012355;28;20080;-66
2022/03/19 10:40:01;;;;;;;5.07;3.05;;;18.60;57.70;;;;;;5012321;28;20527;-60
2022/03/19 10:42:27;;;;;;;4.03;3.63;;;18.60;57.80;;;;;;5014910;28;20037;-61
2022/03/19 10:44:52;;;;;;;5.05;3.05;;;18.60;57.80;;;;;;5014460;28;20117;-62
2022/03/19 10:47:22;;;;;;;4.25;2.70;;;18.60;57.70;;;;;;5026096;28;20476;-62
2022/03/19 10:49:47;;;;;;;5.50;3.25;;;18.60;57.70;;;;;;5034594;28;20045;-62
2022/03/19 10:52:15;;;;;;;5.22;2.67;;;18.60;57.70;;;;;;5035250;28;20061;-62
2022/03/19 10:54:40;;;;;;;5.88;2.55;;;18.60;57.70;;;;;;5034088;28;20022;-62
2022/03/19 10:57:06;;;;;;;5.97;2.53;;;18.70;57.70;;;;;;5034077;28;20079;-62
2022/03/19 10:59:32;;;;;;;9.82;3.00;;;18.60;57.60;;;;;;5035065;28;20067;-62
2022/03/19 11:01:57;;;;;;;4.85;2.88;;;18.70;57.70;;;;;;5035091;28;20017;-62
2022/03/19 11:04:23;;;;;;;4.80;3.20;;;18.70;57.70;;;;;;5033906;28;20100;-62
2022/03/19 11:06:51;;;;;;;4.40;2.92;;;18.70;57.70;;;;;;5033825;28;20424;-62
2022/03/19 11:09:17;;;;;;;6.30;3.30;;;18.70;57.60;;;;;;5033971;28;20036;-62
2022/03/19 11:11:55;;;;;;;3.00;2.60;;;18.70;57.70;;;;;;5033912;28;20021;-62
2022/03/19 11:14:25;;;;;;;4.38;2.63;;;18.70;57.60;;;;;;5033744;28;20021;-62
2022/03/19 11:17:24;;;;;;;2.47;2.25;;;18.70;57.60;;;;;;5043574;28;20096;-62
2022/03/19 11:19:50;;;;;;;2.70;2.25;;;18.70;57.60;;;;;;5052147;28;20392;-62
2022/03/19 11:22:17;;;;;;;3.35;2.67;;;18.70;57.70;;;;;;5051879;28;20391;-62
2022/03/19 11:25:02;;;;;;;3.17;2.85;;;18.70;57.60;;;;;;5034444;28;20041;-61
2022/03/19 11:27:29;;;;;;;3.92;2.83;;;18.80;57.50;;;;;;5065363;28;20028;-62
2022/03/19 11:29:58;;;;;;;3.38;2.70;;;18.80;57.60;;;;;;5033420;28;20033;-62
2022/03/19 11:32:24;;;;;;;4.00;2.80;;;18.80;57.60;;;;;;5034376;28;20036;-62
2022/03/19 11:34:50;;;;;;;3.05;2.35;;;18.80;57.60;;;;;;5066596;28;20033;-62
2022/03/19 11:37:16;;;;;;;3.22;2.70;;;18.80;57.60;;;;;;5033402;28;20024;-62
2022/03/19 11:40:12;;;;;;;3.10;2.20;;;18.80;57.60;;;;;;5034592;28;20022;-62
2022/03/19 11:42:52;;;;;;;4.18;2.30;;;18.80;57.40;;;;;;5063082;28;20037;-62
2022/03/19 11:45:18;;;;;;;4.63;2.53;;;18.80;57.50;;;;;;5034417;28;20452;-63
2022/03/19 11:47:43;;;;;;;5.00;2.90;;;18.80;57.60;;;;;;5034719;28;20104;-62
2022/03/19 11:50:26;;;;;;;3.40;2.60;;;18.80;57.60;;;;;;5066564;28;20113;-62
2022/03/19 11:52:56;;;;;;;3.95;3.00;;;18.90;57.50;;;;;;5032824;28;20106;-62
2022/03/19 11:55:29;;;;;;;3.83;2.65;;;18.80;57.60;;;;;;5034378;28;20033;-62
2022/03/19 11:57:56;;;;;;;;;;;18.90;57.60;;;;;;5033559;28;20021;-62
2022/03/19 12:00:29;;;;;;;3.35;2.22;;;18.80;57.50;;;;;;5034408;28;19905;-62
2022/03/19 12:03:09;;;;;;;3.72;2.65;;;18.80;57.80;;;;;;5032875;28;20021;-62
2022/03/19 12:05:36;;;;;;;4.07;2.38;;;18.80;57.60;;;;;;5032801;28;20025;-62
2022/03/19 12:08:07;;;;;;;2.97;2.22;;;18.80;57.70;;;;;;5032429;28;20032;-62
2022/03/19 12:10:38;;;;;;;2.97;2.38;;;18.90;57.80;;;;;;5033956;28;20021;-62
2022/03/19 12:13:28;;;;;;;3.10;2.40;;;18.90;57.80;;;;;;5033599;28;20037;-62
2022/03/19 12:15:58;;;;;;;3.42;2.30;;;18.90;57.50;;;;;;5033732;28;20029;-62
2022/03/19 12:18:27;;;;;;;2.78;2.30;;;18.90;57.70;;;;;;5033592;28;20040;-67
2022/03/19 12:20:57;;;;;;;2.35;2.15;;;18.90;57.70;;;;;;5033729;28;20029;-67
2022/03/19 12:23:23;;;;;;;2.58;2.08;;;18.90;57.70;;;;;;5048307;28;20028;-66
2022/03/19 12:25:54;;;;;;;5.20;3.10;;;18.90;57.70;;;;;;5015693;28;20496;-66
2022/03/19 12:28:20;;;;;;;6.65;4.80;;;18.90;57.60;;;;;;5032413;28;20037;-67
2022/03/19 12:30:46;;;;;;;12.95;7.50;;;19.00;57.70;;;;;;5032300;28;20541;-66
2022/03/19 12:33:11;;;;;;;12.52;8.30;;;19.00;57.70;;;;;;5032260;28;20032;-62
2022/03/19 12:35:38;;;;;;;13.18;8.68;;;19.00;57.80;;;;;;5033136;28;20029;-63
2022/03/19 12:38:04;;;;;;;13.68;8.27;;;19.00;57.80;;;;;;5032160;28;20045;-62
2022/03/19 12:41:23;;;;;;;12.63;9.25;;;19.00;57.80;;;;;;5031709;28;20049;-62
2022/03/19 12:43:16;;;;;;;12.35;8.48;;;19.10;57.90;;;;;;5012576;28;20080;-62
2022/03/19 12:45:44;;;;;;;13.30;8.95;;;19.10;58.00;;;;;;5012460;28;20026;-62
2022/03/19 12:48:11;;;;;;;12.50;8.70;;;19.10;58.00;;;;;;5013305;28;20026;-61
2022/03/19 12:50:36;;;;;;;14.90;8.68;;;19.10;58.00;;;;;;5029253;28;20026;-61
2022/03/19 12:53:02;;;;;;;14.93;9.05;;;19.20;58.00;;;;;;5033182;28;20041;-61
2022/03/19 12:55:28;;;;;;;13.73;8.98;;;19.20;58.00;;;;;;5031560;28;20067;-62
2022/03/19 12:57:57;;;;;;;12.50;9.38;;;19.20;58.00;;;;;;5037883;28;20023;-61
2022/03/19 13:00:23;;;;;;;12.77;9.07;;;19.30;58.00;;;;;;5051498;28;20475;-62
2022/03/19 13:02:52;;;;;;;14.48;9.43;;;19.30;58.10;;;;;;5050753;28;20028;-62
2022/03/19 13:05:18;;;;;;;12.70;9.35;;;19.30;58.10;;;;;;5052465;28;20028;-62
2022/03/19 13:08:07;;;;;;;10.48;8.90;;;19.30;58.10;;;;;;5052820;28;20025;-63
2022/03/19 13:10:49;;;;;;;13.55;9.40;;;19.50;58.10;;;;;;5018679;28;20391;-62
2022/03/19 13:13:18;;;;;;;11.27;8.50;;;19.50;58.40;;;;;;5052032;28;20021;-62
2022/03/19 13:15:51;;;;;;;14.32;9.00;;;19.50;59.30;;;;;;5051652;28;20279;-63
2022/03/19 13:18:29;;;;;;;14.77;8.82;;;19.50;58.40;;;;;;5035194;28;20036;-63
2022/03/19 13:21:03;;;;;;;12.73;9.48;;;19.50;58.40;;;;;;5052596;28;20064;-60
2022/03/19 13:23:29;;;;;;;10.88;7.90;;;19.50;58.40;;;;;;5042377;28;20049;-62
2022/03/19 13:25:58;;;;;;;10.73;8.43;;;19.50;59.40;;;;;;5031491;28;20484;-62